createdAt,value
2024-01-18T00:01:10.418Z,71.73
2024-01-18T00:03:38.192Z,71.69
2024-01-18T00:06:05.968Z,71.74
2024-01-18T00:08:33.738Z,71.71
2024-01-18T00:11:01.302Z,71.77
2024-01-18T00:13:28.867Z,71.73
2024-01-18T00:15:56.522Z,71.63
2024-01-18T00:18:24.294Z,71.72
2024-01-18T00:20:51.969Z,71.56
2024-01-18T00:23:19.607Z,71.62
2024-01-18T00:25:47.271Z,71.73
2024-01-18T00:28:14.824Z,71.86
2024-01-18T00:30:42.540Z,71.87
2024-01-18T00:33:10.385Z,71.77
2024-01-18T00:35:38.440Z,71.62
2024-01-18T00:38:05.987Z,71.81
2024-01-18T00:40:33.650Z,71.95
2024-01-18T00:43:01.304Z,71.92
2024-01-18T00:45:28.777Z,71.98
2024-01-18T00:47:56.359Z,72.15
2024-01-18T00:50:23.896Z,71.97
2024-01-18T00:52:51.536Z,71.90
2024-01-18T00:55:19.103Z,71.94
2024-01-18T00:57:46.770Z,72.19
2024-01-18T01:00:14.806Z,72.35
2024-01-18T01:02:42.604Z,72.24
2024-01-18T01:05:10.257Z,72.32
2024-01-18T01:07:37.941Z,72.08
2024-01-18T01:10:05.685Z,72.37
2024-01-18T01:12:33.507Z,72.29
2024-01-18T01:15:01.315Z,72.52
2024-01-18T01:17:29.000Z,72.53
2024-01-18T01:19:57.023Z,72.44
2024-01-18T01:22:24.807Z,72.53
2024-01-18T01:24:52.373Z,72.57
2024-01-18T01:27:20.073Z,72.33
2024-01-18T01:29:47.800Z,72.35
2024-01-18T01:32:15.466Z,72.28
2024-01-18T01:34:43.077Z,72.58
2024-01-18T01:37:10.797Z,72.72
2024-01-18T01:39:38.769Z,72.58
2024-01-18T01:42:06.537Z,72.41
2024-01-18T01:44:34.088Z,72.50
2024-01-18T01:47:01.936Z,72.46
2024-01-18T01:49:29.592Z,72.60
2024-01-18T01:51:57.479Z,72.48
2024-01-18T01:54:25.177Z,72.54
2024-01-18T01:56:52.936Z,72.67
2024-01-18T01:59:20.754Z,72.71
2024-01-18T02:01:48.719Z,72.92
2024-01-18T02:04:16.460Z,72.91
2024-01-18T02:06:44.268Z,73.03
2024-01-18T02:09:12.096Z,73.24
2024-01-18T02:11:39.775Z,73.68
2024-01-18T02:14:07.349Z,73.99
2024-01-18T02:16:35.207Z,74.17
2024-01-18T02:19:02.870Z,74.42
2024-01-18T02:21:31.122Z,74.37
2024-01-18T02:23:58.893Z,74.56
2024-01-18T02:26:26.563Z,74.53
2024-01-18T02:28:54.125Z,74.40
2024-01-18T02:31:21.698Z,74.22
2024-01-18T02:33:49.336Z,74.08
2024-01-18T02:36:17.033Z,74.17
2024-01-18T02:38:44.771Z,74.06
2024-01-18T02:41:12.742Z,73.88
2024-01-18T02:43:40.313Z,73.67
2024-01-18T02:46:07.981Z,73.86
2024-01-18T02:48:35.663Z,73.93
2024-01-18T02:51:03.296Z,73.64
2024-01-18T02:53:30.938Z,73.53
2024-01-18T02:55:58.627Z,73.58
2024-01-18T02:58:26.257Z,73.59
2024-01-18T03:00:54.016Z,73.68
2024-01-18T03:03:22.054Z,73.75
2024-01-18T03:05:49.891Z,73.54
2024-01-18T03:08:17.561Z,73.50
2024-01-18T03:10:45.294Z,73.66
2024-01-18T03:13:12.947Z,74.09
2024-01-18T03:15:40.719Z,74.18
2024-01-18T03:18:08.717Z,74.34
2024-01-18T03:20:36.653Z,74.33
2024-01-18T03:23:04.523Z,74.67
2024-01-18T03:25:32.058Z,74.61
2024-01-18T03:27:59.752Z,74.54
2024-01-18T03:30:27.337Z,74.90
2024-01-18T03:32:54.921Z,75.05
2024-01-18T03:35:25.196Z,75.19
2024-01-18T03:37:53.245Z,75.47
2024-01-18T03:40:20.922Z,75.74
2024-01-18T03:42:48.464Z,76.01
2024-01-18T03:45:16.170Z,76.33
2024-01-18T03:47:47.058Z,76.36
2024-01-18T03:50:15.967Z,76.56
2024-01-18T03:52:43.728Z,76.59
2024-01-18T03:55:11.301Z,76.86
2024-01-18T03:57:39.022Z,76.73
2024-01-18T04:00:06.996Z,76.99
2024-01-18T04:02:34.677Z,76.96
2024-01-18T04:05:02.462Z,77.15
2024-01-18T04:07:30.210Z,77.18
2024-01-18T04:09:57.883Z,77.35
2024-01-18T04:12:25.454Z,77.31
2024-01-18T04:14:53.192Z,77.25
2024-01-18T04:17:20.900Z,77.19
2024-01-18T04:19:49.007Z,77.27
2024-01-18T04:22:16.891Z,77.19
2024-01-18T04:24:44.485Z,77.12
2024-01-18T04:27:12.338Z,77.29
2024-01-18T04:29:40.397Z,77.23
2024-01-18T04:32:08.041Z,77.46
2024-01-18T04:34:35.617Z,77.41
2024-01-18T04:37:03.297Z,77.47
2024-01-18T04:39:30.981Z,77.52
2024-01-18T04:41:58.715Z,77.63
2024-01-18T04:44:26.562Z,77.48
2024-01-18T04:46:54.131Z,77.78
2024-01-18T04:49:22.126Z,77.70
2024-01-18T04:51:49.789Z,77.64
2024-01-18T04:54:17.477Z,77.48
2024-01-18T04:56:45.177Z,77.33
2024-01-18T04:59:12.739Z,77.33
2024-01-18T05:01:40.396Z,77.26
2024-01-18T05:04:08.201Z,77.21
2024-01-18T05:06:36.027Z,76.99
2024-01-18T05:09:04.036Z,76.88
2024-01-18T05:11:31.865Z,77.08
2024-01-18T05:13:59.414Z,77.15
2024-01-18T05:16:27.082Z,76.93
2024-01-18T05:18:54.700Z,77.03
2024-01-18T05:21:22.552Z,77.18
2024-01-18T05:23:50.416Z,77.42
2024-01-18T05:26:18.073Z,77.37
2024-01-18T05:28:45.893Z,77.39
2024-01-18T05:31:13.769Z,77.70
2024-01-18T05:33:41.443Z,78.13
2024-01-18T05:36:09.327Z,78.62
2024-01-18T05:38:40.516Z,79.27
2024-01-18T05:41:09.931Z,79.77
2024-01-18T05:43:37.501Z,80.07
2024-01-18T05:46:05.166Z,80.54
2024-01-18T05:48:32.746Z,80.65
2024-01-18T05:51:00.882Z,80.70
2024-01-18T05:53:28.559Z,80.61
2024-01-18T05:55:56.117Z,80.54
2024-01-18T05:58:23.670Z,80.58
2024-01-18T06:00:51.385Z,80.79
2024-01-18T06:03:19.108Z,81.26
2024-01-18T06:05:46.716Z,81.17
2024-01-18T06:08:14.323Z,81.02
2024-01-18T06:10:42.185Z,80.98
2024-01-18T06:13:09.756Z,81.10
2024-01-18T06:15:37.331Z,81.06
2024-01-18T06:18:05.070Z,81.20
2024-01-18T06:20:32.872Z,81.27
2024-01-18T06:23:00.491Z,81.36
2024-01-18T06:25:27.938Z,81.39
2024-01-18T06:27:55.499Z,81.49
2024-01-18T06:30:23.186Z,81.53
2024-01-18T06:32:50.966Z,81.26
2024-01-18T06:35:18.992Z,81.43
2024-01-18T06:37:46.655Z,81.44
2024-01-18T06:40:14.216Z,81.44
2024-01-18T06:42:41.823Z,81.58
2024-01-18T06:45:09.484Z,81.53
2024-01-18T06:47:37.340Z,81.43
2024-01-18T06:50:05.204Z,81.30
2024-01-18T06:52:32.827Z,81.27
2024-01-18T06:55:00.493Z,81.17
2024-01-18T06:57:28.210Z,81.21
2024-01-18T06:59:56.433Z,81.16
2024-01-18T07:02:24.200Z,80.96
2024-01-18T07:04:51.981Z,81.21
2024-01-18T07:07:19.618Z,80.97
2024-01-18T07:09:47.231Z,81.00
2024-01-18T07:12:14.964Z,80.81
2024-01-18T07:14:42.713Z,80.82
2024-01-18T07:17:10.265Z,80.48
2024-01-18T07:19:40.273Z,80.27
2024-01-18T07:22:08.345Z,80.15
2024-01-18T07:24:35.943Z,80.28
2024-01-18T07:27:03.527Z,80.23
2024-01-18T07:29:31.341Z,80.32
2024-01-18T07:31:58.895Z,80.35
2024-01-18T07:34:26.754Z,80.44
2024-01-18T07:36:54.872Z,80.34
2024-01-18T07:39:22.639Z,80.38
2024-01-18T07:41:50.259Z,80.29
2024-01-18T07:44:17.816Z,80.30
2024-01-18T07:46:45.395Z,80.31
2024-01-18T07:49:12.952Z,80.45
2024-01-18T07:51:40.572Z,80.50
2024-01-18T07:54:08.392Z,80.28
2024-01-18T07:56:36.118Z,80.04
2024-01-18T07:59:03.787Z,79.85
2024-01-18T08:01:34.835Z,79.69
2024-01-18T08:04:04.447Z,79.85
2024-01-18T08:06:32.425Z,79.97
2024-01-18T08:09:00.189Z,80.00
2024-01-18T08:11:27.866Z,80.20
2024-01-18T08:13:55.598Z,80.24
2024-01-18T08:16:23.241Z,80.50
2024-01-18T08:18:51.012Z,80.37
2024-01-18T08:21:18.745Z,80.14
2024-01-18T08:23:46.541Z,79.79
2024-01-18T08:26:14.093Z,79.75
2024-01-18T08:28:41.766Z,79.74
2024-01-18T08:31:09.417Z,79.60
2024-01-18T08:33:37.011Z,79.58
2024-01-18T08:36:05.104Z,79.42
2024-01-18T08:38:32.818Z,79.32
2024-01-18T08:41:00.372Z,79.37
2024-01-18T08:43:27.940Z,79.37
2024-01-18T08:45:55.700Z,79.32
2024-01-18T08:48:23.651Z,79.22
2024-01-18T08:50:52.798Z,78.82
2024-01-18T08:53:21.744Z,78.77
2024-01-18T08:55:49.728Z,78.74
2024-01-18T08:58:17.324Z,78.48
2024-01-18T09:00:45.032Z,78.41
2024-01-18T09:03:12.752Z,78.34
2024-01-18T09:05:40.369Z,78.41
2024-01-18T09:08:08.066Z,78.56
2024-01-18T09:10:35.934Z,78.43
2024-01-18T09:13:03.555Z,78.59
2024-01-18T09:15:31.041Z,78.64
2024-01-18T09:17:59.155Z,78.66
2024-01-18T09:20:26.893Z,78.24
2024-01-18T09:23:05.192Z,78.04
2024-01-18T09:25:40.003Z,78.09
2024-01-18T09:28:08.272Z,78.13
2024-01-18T09:30:36.018Z,78.22
2024-01-18T09:33:03.727Z,78.18
2024-01-18T09:35:31.402Z,78.17
2024-01-18T09:37:59.010Z,78.16
2024-01-18T09:40:26.772Z,77.96
2024-01-18T09:42:54.453Z,77.89
2024-01-18T09:45:22.119Z,77.48
2024-01-18T09:47:49.822Z,77.25
2024-01-18T09:50:17.581Z,77.17
2024-01-18T09:52:45.189Z,77.27
2024-01-18T09:55:12.845Z,77.43
2024-01-18T09:57:40.558Z,77.26
2024-01-18T10:00:09.744Z,77.44
2024-01-18T10:02:38.006Z,77.34
2024-01-18T10:05:06.074Z,77.19
2024-01-18T10:07:33.960Z,77.24
2024-01-18T10:10:01.792Z,77.12
2024-01-18T10:12:29.449Z,76.91
2024-01-18T10:14:57.006Z,76.93
2024-01-18T10:17:24.769Z,76.80
2024-01-18T10:19:52.795Z,76.55
2024-01-18T10:22:21.021Z,76.27
2024-01-18T10:24:48.887Z,76.60
2024-01-18T10:27:16.682Z,76.61
2024-01-18T10:29:44.520Z,76.66
2024-01-18T10:32:12.206Z,76.85
2024-01-18T10:34:39.915Z,76.90
2024-01-18T10:37:08.009Z,76.82
2024-01-18T10:39:35.626Z,76.91
2024-01-18T10:42:03.630Z,76.74
2024-01-18T10:44:31.204Z,76.69
2024-01-18T10:46:58.863Z,76.54
2024-01-18T10:49:26.427Z,76.57
2024-01-18T10:51:54.277Z,76.44
2024-01-18T10:54:30.066Z,76.38
2024-01-18T10:57:05.181Z,76.35
2024-01-18T10:59:32.740Z,76.51
2024-01-18T11:02:00.864Z,76.78
2024-01-18T11:04:28.702Z,76.83
2024-01-18T11:06:56.328Z,77.07
2024-01-18T11:09:24.000Z,76.84
2024-01-18T11:11:51.650Z,76.55
2024-01-18T11:14:19.419Z,76.63
2024-01-18T11:16:46.971Z,76.56
2024-01-18T11:19:14.708Z,76.53
2024-01-18T11:21:42.823Z,76.68
2024-01-18T11:24:10.652Z,76.81
2024-01-18T11:26:38.334Z,76.62
2024-01-18T11:29:06.139Z,76.39
2024-01-18T11:31:33.803Z,76.22
2024-01-18T11:34:01.481Z,76.08
2024-01-18T11:36:29.207Z,76.48
2024-01-18T11:38:56.951Z,76.72
2024-01-18T11:41:24.696Z,76.90
2024-01-18T11:43:52.880Z,77.01
2024-01-18T11:46:20.463Z,76.85
2024-01-18T11:48:48.190Z,76.85
2024-01-18T11:51:15.901Z,76.78
2024-01-18T11:53:43.428Z,76.82
2024-01-18T11:56:11.106Z,76.92
2024-01-18T11:58:38.659Z,76.70
2024-01-18T12:01:06.624Z,76.57
2024-01-18T12:03:34.414Z,76.17
2024-01-18T12:06:02.167Z,75.92
2024-01-18T12:08:29.798Z,75.48
2024-01-18T12:10:57.460Z,75.48
2024-01-18T12:13:25.028Z,75.57
2024-01-18T12:15:52.799Z,75.60
2024-01-18T12:18:20.525Z,75.57
2024-01-18T12:20:48.306Z,75.76
2024-01-18T12:23:15.887Z,75.83
2024-01-18T12:25:43.947Z,75.48
2024-01-18T12:28:11.504Z,75.24
2024-01-18T12:30:39.175Z,75.21
2024-01-18T12:33:06.864Z,75.07
2024-01-18T12:35:34.495Z,75.01
2024-01-18T12:38:02.050Z,75.23
2024-01-18T12:40:29.611Z,75.22
2024-01-18T12:42:57.381Z,75.42
2024-01-18T12:45:25.165Z,75.47
2024-01-18T12:47:52.824Z,75.72
2024-01-18T12:50:20.763Z,75.93
2024-01-18T12:52:48.535Z,76.26
2024-01-18T12:55:16.083Z,76.55
2024-01-18T12:57:46.467Z,76.88
2024-01-18T13:00:14.296Z,77.07
2024-01-18T13:02:42.035Z,77.14
2024-01-18T13:05:09.785Z,77.26
2024-01-18T13:07:37.612Z,77.31
2024-01-18T13:10:05.590Z,77.35
2024-01-18T13:12:33.339Z,77.53
2024-01-18T13:15:00.963Z,77.59
2024-01-18T13:17:28.658Z,77.68
2024-01-18T13:19:56.400Z,77.79
2024-01-18T13:22:24.057Z,77.86
2024-01-18T13:24:51.740Z,77.96
2024-01-18T13:27:19.295Z,78.07
2024-01-18T13:29:46.938Z,78.20
2024-01-18T13:32:14.798Z,78.52
2024-01-18T13:34:42.641Z,78.80
2024-01-18T13:37:12.986Z,79.25
2024-01-18T13:39:45.780Z,79.63
2024-01-18T13:42:13.323Z,79.86
2024-01-18T13:44:41.013Z,79.97
2024-01-18T13:47:08.537Z,80.21
2024-01-18T13:49:36.255Z,80.39
2024-01-18T13:52:04.503Z,80.64
2024-01-18T13:54:32.562Z,80.63
2024-01-18T13:57:00.235Z,80.51
2024-01-18T13:59:27.780Z,80.29
2024-01-18T14:01:55.394Z,80.14
2024-01-18T14:04:23.197Z,80.16
2024-01-18T14:06:50.823Z,80.25
2024-01-18T14:09:18.696Z,80.20
2024-01-18T14:11:46.700Z,80.27
2024-01-18T14:14:14.465Z,80.39
2024-01-18T14:16:42.019Z,80.60
2024-01-18T14:19:09.892Z,80.55
2024-01-18T14:21:37.663Z,80.63
2024-01-18T14:24:05.531Z,80.80
2024-01-18T14:26:33.116Z,80.88
2024-01-18T14:29:00.837Z,80.97
2024-01-18T14:31:28.409Z,80.92
2024-01-18T14:33:56.670Z,81.09
2024-01-18T14:36:24.335Z,81.04
2024-01-18T14:38:52.112Z,81.21
2024-01-18T14:41:19.667Z,81.45
2024-01-18T14:43:47.310Z,81.48
2024-01-18T14:46:14.894Z,81.45
2024-01-18T14:48:42.666Z,81.58
2024-01-18T14:51:10.511Z,81.65
2024-01-18T14:53:38.175Z,81.77
2024-01-18T14:56:05.727Z,81.63
2024-01-18T14:58:33.398Z,81.72
2024-01-18T15:01:01.112Z,81.78
2024-01-18T15:03:28.867Z,81.94
2024-01-18T15:05:56.743Z,82.10
2024-01-18T15:08:24.450Z,82.31
2024-01-18T15:10:52.211Z,82.30
2024-01-18T15:13:19.760Z,82.32
2024-01-18T15:15:47.426Z,82.49
2024-01-18T15:18:15.052Z,82.58
2024-01-18T15:20:43.117Z,82.72
2024-01-18T15:23:10.922Z,82.64
2024-01-18T15:25:38.381Z,82.60
2024-01-18T15:28:05.981Z,82.70
2024-01-18T15:30:33.868Z,82.58
2024-01-18T15:33:02.034Z,82.59
2024-01-18T15:35:29.739Z,82.79
2024-01-18T15:37:57.306Z,82.76
2024-01-18T15:40:24.962Z,82.93
2024-01-18T15:42:52.583Z,83.03
2024-01-18T15:45:20.272Z,83.23
2024-01-18T15:47:47.965Z,83.43
2024-01-18T15:50:15.601Z,83.62
2024-01-18T15:52:45.262Z,83.66
2024-01-18T15:55:13.248Z,83.75
2024-01-18T15:57:41.050Z,83.58
2024-01-18T16:00:09.067Z,83.43
2024-01-18T16:02:36.779Z,83.48
2024-01-18T16:05:07.330Z,83.71
2024-01-18T16:07:35.799Z,83.82
2024-01-18T16:10:03.477Z,84.18
2024-01-18T16:12:31.173Z,84.51
2024-01-18T16:14:59.098Z,84.87
2024-01-18T16:17:26.887Z,84.85
2024-01-18T16:19:54.950Z,85.07
2024-01-18T16:22:22.586Z,84.98
2024-01-18T16:24:50.265Z,84.23
2024-01-18T16:27:18.046Z,83.67
2024-01-18T16:29:54.659Z,84.02
2024-01-18T16:32:33.153Z,84.33
2024-01-18T16:35:03.336Z,84.58
2024-01-18T16:37:32.405Z,87.21
2024-01-18T16:40:00.312Z,88.39
2024-01-18T16:42:28.117Z,88.37
2024-01-18T16:44:55.897Z,87.41
2024-01-18T16:47:23.455Z,86.57
2024-01-18T16:49:51.180Z,86.58
2024-01-18T16:52:18.876Z,86.88
2024-01-18T16:54:46.671Z,86.99
2024-01-18T16:57:19.246Z,86.87
2024-01-18T16:59:55.691Z,86.53
2024-01-18T17:02:23.407Z,86.41
2024-01-18T17:04:51.238Z,86.09
2024-01-18T17:07:19.137Z,85.88
2024-01-18T17:09:46.846Z,85.28
2024-01-18T17:12:14.499Z,84.67
2024-01-18T17:14:42.078Z,84.63
2024-01-18T17:17:10.475Z,84.78
2024-01-18T17:19:38.130Z,84.93
2024-01-18T17:22:05.779Z,85.78
2024-01-18T17:24:33.434Z,85.85
2024-01-18T17:27:01.156Z,85.39
2024-01-18T17:29:28.782Z,85.50
2024-01-18T17:31:56.353Z,85.55
2024-01-18T17:34:24.042Z,86.09
2024-01-18T17:36:51.739Z,85.85
2024-01-18T17:39:19.391Z,85.88
2024-01-18T17:41:47.028Z,85.81
2024-01-18T17:44:14.743Z,86.14
2024-01-18T17:46:44.497Z,86.20
2024-01-18T17:49:13.922Z,85.61
2024-01-18T17:51:41.694Z,85.31
2024-01-18T17:54:09.258Z,85.48
2024-01-18T17:56:37.013Z,85.62
2024-01-18T17:59:04.990Z,85.96
2024-01-18T18:01:32.642Z,86.02
2024-01-18T18:04:00.210Z,85.88
2024-01-18T18:06:27.930Z,85.73
2024-01-18T18:08:55.670Z,85.79
2024-01-18T18:11:23.341Z,85.67
2024-01-18T18:13:50.972Z,85.28
2024-01-18T18:16:18.621Z,84.97
2024-01-18T18:18:46.563Z,84.92
2024-01-18T18:21:14.246Z,84.93
2024-01-18T18:23:41.821Z,85.40
2024-01-18T18:26:10.206Z,85.41
2024-01-18T18:28:38.964Z,85.32
2024-01-18T18:31:06.779Z,85.28
2024-01-18T18:33:34.486Z,85.10
2024-01-18T18:36:02.333Z,85.06
2024-01-18T18:38:33.114Z,85.37
2024-01-18T18:41:01.984Z,85.17
2024-01-18T18:43:30.912Z,85.15
2024-01-18T18:45:58.969Z,84.88
2024-01-18T18:48:26.649Z,84.80
2024-01-18T18:50:54.501Z,84.65
2024-01-18T18:53:22.326Z,84.49
2024-01-18T18:55:49.997Z,84.47
2024-01-18T18:58:17.560Z,84.58
2024-01-18T19:00:45.445Z,84.66
2024-01-18T19:03:13.086Z,84.59
2024-01-18T19:05:40.829Z,84.65
2024-01-18T19:08:08.742Z,84.37
2024-01-18T19:10:36.384Z,84.19
2024-01-18T19:13:04.049Z,84.12
2024-01-18T19:15:31.623Z,84.15
2024-01-18T19:17:59.409Z,84.20
2024-01-18T19:20:27.266Z,83.97
2024-01-18T19:22:55.009Z,83.80
2024-01-18T19:25:23.063Z,83.59
2024-01-18T19:27:50.729Z,83.75
2024-01-18T19:30:18.292Z,83.65
2024-01-18T19:32:46.099Z,83.81
2024-01-18T19:35:13.934Z,83.74
2024-01-18T19:37:41.469Z,83.64
2024-01-18T19:40:09.037Z,83.51
2024-01-18T19:42:36.799Z,83.41
2024-01-18T19:45:04.660Z,83.44
2024-01-18T19:47:32.425Z,83.40
2024-01-18T19:50:00.205Z,83.42
2024-01-18T19:52:44.038Z,83.14
2024-01-18T19:55:11.593Z,83.28
2024-01-18T19:57:42.102Z,83.32
2024-01-18T20:00:11.220Z,83.10
2024-01-18T20:02:38.799Z,83.04
2024-01-18T20:05:06.227Z,82.82
2024-01-18T20:07:33.790Z,82.59
2024-01-18T20:10:01.666Z,82.31
2024-01-18T20:12:29.222Z,82.22
2024-01-18T20:14:56.990Z,82.21
2024-01-18T20:17:24.794Z,82.26
2024-01-18T20:19:52.455Z,82.20
2024-01-18T20:22:20.268Z,82.18
2024-01-18T20:24:47.945Z,82.28
2024-01-18T20:27:15.825Z,81.95
2024-01-18T20:29:44.122Z,81.88
2024-01-18T20:32:11.893Z,81.83
2024-01-18T20:34:40.451Z,82.03
2024-01-18T20:37:09.104Z,81.86
2024-01-18T20:39:36.772Z,81.83
2024-01-18T20:42:04.628Z,81.66
2024-01-18T20:44:32.322Z,81.82
2024-01-18T20:47:00.075Z,81.53
2024-01-18T20:49:27.757Z,81.32
2024-01-18T20:51:55.490Z,81.28
2024-01-18T20:54:23.045Z,81.14
2024-01-18T20:56:50.712Z,81.12
2024-01-18T20:59:18.413Z,80.87
2024-01-18T21:01:46.025Z,81.50
2024-01-18T21:04:13.713Z,81.68
2024-01-18T21:06:41.469Z,82.10
2024-01-18T21:09:09.210Z,82.19
2024-01-18T21:11:37.349Z,82.07
2024-01-18T21:14:04.957Z,81.89
2024-01-18T21:16:32.615Z,82.11
2024-01-18T21:19:00.363Z,81.92
2024-01-18T21:21:28.246Z,81.71
2024-01-18T21:23:56.023Z,81.31
2024-01-18T21:26:24.191Z,81.18
2024-01-18T21:28:51.732Z,81.20
2024-01-18T21:31:19.398Z,81.37
2024-01-18T21:33:46.980Z,81.19
2024-01-18T21:36:14.661Z,80.91
2024-01-18T21:38:42.329Z,80.71
2024-01-18T21:41:10.149Z,80.71
2024-01-18T21:43:38.018Z,80.65
2024-01-18T21:46:06.278Z,80.66
2024-01-18T21:48:34.222Z,80.45
2024-01-18T21:51:02.282Z,80.54
2024-01-18T21:53:30.110Z,80.51
2024-01-18T21:55:57.963Z,80.37
2024-01-18T21:58:25.716Z,80.51
2024-01-18T22:00:53.701Z,80.49
2024-01-18T22:03:21.550Z,80.27
2024-01-18T22:05:49.556Z,80.25
2024-01-18T22:08:17.323Z,80.18
2024-01-18T22:10:44.953Z,80.19
2024-01-18T22:13:12.609Z,80.12
2024-01-18T22:15:40.061Z,80.30
2024-01-18T22:18:07.738Z,80.15
2024-01-18T22:20:35.546Z,80.24
2024-01-18T22:23:03.252Z,80.36
2024-01-18T22:25:30.914Z,80.45
2024-01-18T22:27:58.480Z,80.47
2024-01-18T22:30:26.131Z,80.52
2024-01-18T22:32:54.089Z,80.59
2024-01-18T22:35:21.944Z,80.67
2024-01-18T22:37:49.639Z,80.57
2024-01-18T22:40:17.394Z,80.49
2024-01-18T22:42:45.084Z,80.56
2024-01-18T22:45:12.722Z,80.56
2024-01-18T22:47:40.342Z,80.46
2024-01-18T22:50:08.431Z,80.51
2024-01-18T22:52:36.434Z,80.21
2024-01-18T22:55:04.087Z,80.19
2024-01-18T22:57:31.742Z,80.10
2024-01-18T22:59:59.307Z,80.05
2024-01-18T23:02:26.958Z,80.20
2024-01-18T23:04:54.520Z,79.86
2024-01-18T23:07:22.189Z,79.57
2024-01-18T23:09:49.742Z,79.82
2024-01-18T23:12:17.404Z,79.84
2024-01-18T23:14:45.512Z,79.74
2024-01-18T23:17:13.159Z,79.52
2024-01-18T23:19:40.782Z,79.23
2024-01-18T23:22:08.485Z,79.15
2024-01-18T23:24:36.120Z,79.31
2024-01-18T23:27:03.666Z,79.37
2024-01-18T23:29:31.468Z,79.45
2024-01-18T23:31:59.099Z,79.39
2024-01-18T23:34:26.658Z,79.55
2024-01-18T23:36:54.315Z,79.51
2024-01-18T23:39:21.978Z,79.74
2024-01-18T23:41:49.649Z,79.79
2024-01-18T23:44:17.415Z,79.54
2024-01-18T23:46:44.956Z,79.61
2024-01-18T23:49:12.440Z,79.43
2024-01-18T23:51:40.315Z,79.22
2024-01-18T23:54:08.067Z,79.39
2024-01-18T23:56:35.701Z,79.36
2024-01-18T23:59:03.386Z,79.41
